Time;durP1;ratioP1;P1;durP2;ratioP2;P2;SDS_P1;SDS_P2;PMS_P1;PMS_P2;Temp;Humidity;BMP_temperature;BMP_pressure;BME280_temperature;BME280_humidity;BME280_pressure;Samples;Min_cycle;Max_cycle;Signal;HPM_P1;HPM_P2
2024/01/28 11:40:39;;;;;;;24.10;8.80;;;;;;;11.31;92.98;102080.67;103505;1282;600382;-48
2024/01/28 11:43:06;;;;;;;16.60;7.10;;;;;;;11.41;90.33;102081.82;103275;1289;61163;-51
2024/01/28 11:45:33;;;;;;;24.00;8.30;;;;;;;11.43;89.03;102085.65;103532;1284;61841;-49
2024/01/28 11:48:05;;;;;;;28.10;9.20;;;;;;;11.46;88.25;102087.13;103416;1287;61163;-49
2024/01/28 11:50:31;;;;;;;23.30;9.50;;;;;;;11.48;87.33;102084.05;103478;1285;74603;-47
2024/01/28 11:52:56;;;;;;;22.10;8.80;;;;;;;11.51;86.85;102086.51;103221;1284;61233;-49
2024/01/28 11:55:22;;;;;;;19.90;8.30;;;;;;;11.54;86.04;102089.12;103163;1284;423544;-49
2024/01/28 11:57:48;;;;;;;18.70;8.20;;;;;;;11.56;85.92;102092.98;103750;1282;61223;-51
2024/01/28 12:00:15;;;;;;;20.60;9.10;;;;;;;11.59;85.35;102096.56;103574;1282;75174;-51
2024/01/28 12:02:42;;;;;;;21.80;8.20;;;;;;;11.62;84.83;102099.72;103345;1284;73195;-49
2024/01/28 12:05:09;;;;;;;22.40;8.80;;;;;;;11.65;84.83;102103.33;103611;1282;61288;-48
2024/01/28 12:07:36;;;;;;;26.90;9.70;;;;;;;11.67;84.20;102107.02;103542;1282;61134;-49
2024/01/28 12:10:05;;;;;;;16.00;7.70;;;;;;;11.68;83.50;102109.98;103529;1284;74198;-48
2024/01/28 12:12:34;;;;;;;17.40;8.00;;;;;;;11.69;83.53;102111.98;103434;1284;75023;-48
2024/01/28 12:15:02;;;;;;;24.90;9.80;;;;;;;11.71;83.06;102117.67;103533;1286;74030;-50
2024/01/28 12:17:27;;;;;;;18.40;7.70;;;;;;;11.72;82.41;102115.58;103508;1281;61219;-48
2024/01/28 12:19:53;;;;;;;19.00;8.40;;;;;;;11.72;82.27;102114.40;103635;1280;61248;-50
2024/01/28 12:22:19;;;;;;;20.00;8.80;;;;;;;11.74;82.18;102120.00;103493;1284;61221;-49
2024/01/28 12:24:45;;;;;;;21.50;8.90;;;;;;;11.74;81.67;102121.21;103450;1279;61182;-48
2024/01/28 12:27:11;;;;;;;19.30;8.80;;;;;;;11.75;81.30;102122.36;103677;1285;61246;-48
2024/01/28 12:29:37;;;;;;;19.50;8.90;;;;;;;11.74;81.07;102123.60;103126;1281;61336;-49
2024/01/28 12:32:03;;;;;;;19.20;8.50;;;;;;;11.75;80.94;102125.29;103678;1284;74601;-52
2024/01/28 12:34:31;;;;;;;20.90;7.60;;;;;;;11.76;80.67;102125.85;103487;1282;61105;-52
2024/01/28 12:36:57;;;;;;;20.10;8.30;;;;;;;11.76;80.12;102127.84;103171;1282;73872;-49
2024/01/28 12:39:24;;;;;;;17.60;8.00;;;;;;;11.76;79.57;102131.12;103385;1286;61281;-47
2024/01/28 12:41:49;;;;;;;18.00;7.90;;;;;;;11.76;79.62;102135.45;103538;1281;61217;-48
2024/01/28 12:44:15;;;;;;;18.10;8.70;;;;;;;11.76;79.32;102141.89;103445;1280;61230;-49
2024/01/28 12:46:41;;;;;;;19.90;8.30;;;;;;;11.77;79.39;102145.10;103676;1280;61138;-49
2024/01/28 12:49:06;;;;;;;19.00;8.20;;;;;;;11.76;78.92;102151.06;104044;1279;61215;-47
2024/01/28 12:51:32;;;;;;;21.50;9.50;;;;;;;11.76;78.70;102151.41;103887;1280;61148;-49
2024/01/28 12:53:57;;;;;;;22.70;9.60;;;;;;;11.75;78.58;102155.69;103852;1285;61144;-50
2024/01/28 12:56:23;;;;;;;21.30;7.90;;;;;;;11.75;78.47;102159.31;103412;1288;61400;-49
2024/01/28 12:58:48;;;;;;;18.70;8.20;;;;;;;11.75;78.59;102160.94;103813;1285;61249;-50
2024/01/28 13:01:14;;;;;;;18.20;7.80;;;;;;;11.75;78.11;102162.27;103338;1288;61135;-52
2024/01/28 13:03:39;;;;;;;23.40;9.20;;;;;;;11.74;77.84;102165.95;103781;1280;61211;-48
2024/01/28 13:06:06;;;;;;;19.40;8.80;;;;;;;11.74;77.89;102165.70;103839;1285;61243;-51
2024/01/28 13:08:31;;;;;;;17.80;8.10;;;;;;;11.73;77.93;102167.52;103476;1288;60461;-50
2024/01/28 13:11:00;;;;;;;21.40;8.80;;;;;;;11.74;77.77;102168.23;103168;1288;61252;-50
2024/01/28 13:13:26;;;;;;;20.00;8.90;;;;;;;11.73;77.59;102167.08;103361;1286;61155;-48
2024/01/28 13:15:53;;;;;;;20.30;8.90;;;;;;;11.73;77.57;102170.86;103876;1284;73671;-51
2024/01/28 13:18:18;;;;;;;17.60;7.50;;;;;;;11.73;77.67;102167.45;103761;1279;61199;-50
2024/01/28 13:21:04;;;;;;;20.10;8.50;;;;;;;11.73;77.44;102171.52;103760;1285;61227;-53
2024/01/28 13:23:29;;;;;;;22.00;9.20;;;;;;;11.73;77.37;102177.55;103238;1285;61505;-49
2024/01/28 13:25:55;;;;;;;17.90;8.50;;;;;;;11.73;77.20;102180.79;103076;1285;61343;-49
2024/01/28 13:28:20;;;;;;;16.10;7.40;;;;;;;11.73;77.18;102180.74;103220;1285;61164;-49
2024/01/28 13:30:46;;;;;;;20.80;8.40;;;;;;;11.73;77.12;102183.48;103335;1288;60840;-49
2024/01/28 13:33:11;;;;;;;20.90;8.50;;;;;;;11.73;76.96;102185.27;103268;1288;61260;-49
2024/01/28 13:35:37;;;;;;;19.30;8.60;;;;;;;11.72;76.69;102183.92;102866;1290;61170;-49
2024/01/28 13:38:03;;;;;;;22.30;9.10;;;;;;;11.72;76.64;102190.77;103120;1285;61052;-52
2024/01/28 13:40:29;;;;;;;19.70;9.10;;;;;;;11.73;76.51;102188.90;103310;1285;61346;-52
2024/01/28 13:42:54;;;;;;;17.30;8.10;;;;;;;11.73;76.41;102191.05;103118;1285;60523;-49
2024/01/28 13:45:20;;;;;;;18.60;8.50;;;;;;;11.72;76.39;102195.97;103037;1284;61282;-49
2024/01/28 13:47:45;;;;;;;23.20;9.70;;;;;;;11.72;76.40;102194.77;103301;1285;61292;-52
2024/01/28 13:50:11;;;;;;;19.30;8.80;;;;;;;11.72;76.21;102197.10;103216;1288;61249;-51
2024/01/28 13:52:36;;;;;;;17.80;7.50;;;;;;;11.72;76.00;102201.30;103096;1289;61232;-52
2024/01/28 13:55:02;;;;;;;21.10;8.70;;;;;;;11.72;75.99;102202.92;103350;1279;61244;-52
2024/01/28 13:57:28;;;;;;;19.80;8.70;;;;;;;11.71;75.81;102202.47;103237;1286;61474;-50
2024/01/28 13:59:54;;;;;;;20.30;8.90;;;;;;;11.71;75.66;102202.52;103927;1285;61207;-53
2024/01/28 14:02:19;;;;;;;19.40;9.00;;;;;;;11.70;75.44;102205.63;103827;1284;73905;-50
2024/01/28 14:04:45;;;;;;;17.40;7.60;;;;;;;11.70;75.56;102205.42;103627;1285;61150;-52
2024/01/28 14:07:11;;;;;;;19.00;8.60;;;;;;;11.70;75.34;102206.91;103864;1279;61156;-53
2024/01/28 14:09:36;;;;;;;20.90;8.80;;;;;;;11.70;75.34;102210.82;103423;1280;60447;-53
2024/01/28 14:12:22;;;;;;;20.50;8.50;;;;;;;11.70;75.27;102214.27;103838;1285;60347;-52
2024/01/28 14:14:47;;;;;;;19.90;8.30;;;;;;;11.71;75.12;102211.20;103186;1287;74660;-52
2024/01/28 14:17:14;;;;;;;17.70;7.90;;;;;;;11.70;74.88;102212.91;103201;1286;61109;-51
